createdAt,value
2019-05-18T00:01:42.136Z,67.91
2019-05-18T00:04:09.155Z,68.12
2019-05-18T00:06:36.230Z,68.08
2019-05-18T00:09:05.038Z,68.07
2019-05-18T00:11:32.217Z,67.62
2019-05-18T00:13:59.253Z,67.98
2019-05-18T00:16:37.775Z,67.96
2019-05-18T00:19:04.908Z,68.10
2019-05-18T00:21:32.028Z,68.14
2019-05-18T00:24:13.080Z,68.43
2019-05-18T00:26:40.239Z,68.22
2019-05-18T00:29:08.068Z,68.82
2019-05-18T00:31:35.430Z,68.90
2019-05-18T00:34:02.547Z,68.68
2019-05-18T00:36:29.593Z,68.73
2019-05-18T00:38:56.657Z,68.64
2019-05-18T00:41:23.740Z,68.57
2019-05-18T00:43:50.863Z,68.55
2019-05-18T00:46:17.965Z,69.03
2019-05-18T00:48:45.022Z,68.64
2019-05-18T00:51:12.051Z,68.65
2019-05-18T00:53:39.084Z,68.95
2019-05-18T00:56:06.248Z,68.66
2019-05-18T00:58:33.290Z,68.45
2019-05-18T01:01:00.367Z,68.39
2019-05-18T01:03:27.442Z,68.74
2019-05-18T01:05:54.454Z,68.91
2019-05-18T01:08:21.493Z,68.87
2019-05-18T01:10:48.565Z,68.90
2019-05-18T01:13:15.606Z,68.79
2019-05-18T01:15:42.662Z,68.89
2019-05-18T01:18:10.074Z,68.79
2019-05-18T01:20:37.350Z,68.54
2019-05-18T01:23:04.464Z,69.01
2019-05-18T01:25:31.607Z,68.65
2019-05-18T01:27:59.385Z,68.67
2019-05-18T01:30:27.291Z,68.83
2019-05-18T01:32:54.774Z,68.71
2019-05-18T01:35:21.845Z,68.62
2019-05-18T01:37:48.950Z,68.64
2019-05-18T01:40:16.230Z,68.89
2019-05-18T01:42:43.284Z,68.69
2019-05-18T01:45:17.037Z,68.73
2019-05-18T01:47:39.671Z,68.72
2019-05-18T01:50:07.038Z,68.82
2019-05-18T01:52:34.080Z,68.82
2019-05-18T01:55:01.112Z,68.76
2019-05-18T01:57:28.180Z,68.97
2019-05-18T01:59:55.233Z,69.09
2019-05-18T02:02:22.318Z,68.77
2019-05-18T02:04:49.371Z,68.59
2019-05-18T02:07:16.467Z,68.91
2019-05-18T02:09:43.879Z,68.76
2019-05-18T02:12:10.919Z,68.76
2019-05-18T02:14:37.970Z,68.66
2019-05-18T02:17:05.018Z,68.74
2019-05-18T02:19:32.057Z,68.82
2019-05-18T02:21:59.142Z,69.02
2019-05-18T02:24:26.235Z,69.22
2019-05-18T02:26:53.329Z,69.29
2019-05-18T02:29:20.388Z,69.14
2019-05-18T02:31:47.438Z,69.29
2019-05-18T02:34:14.531Z,69.21
2019-05-18T02:36:41.588Z,69.68
2019-05-18T02:39:09.625Z,70.10
2019-05-18T02:41:36.652Z,69.93
2019-05-18T02:44:04.340Z,69.52
2019-05-18T02:46:31.372Z,69.87
2019-05-18T02:48:59.426Z,69.75
2019-05-18T02:51:26.546Z,69.49
2019-05-18T02:53:53.575Z,69.27
2019-05-18T02:56:20.617Z,69.81
2019-05-18T02:58:48.518Z,69.78
2019-05-18T03:01:15.557Z,69.81
2019-05-18T03:03:42.684Z,69.99
2019-05-18T03:06:10.378Z,69.89
2019-05-18T03:08:37.505Z,69.87
2019-05-18T03:11:24.696Z,70.01
2019-05-18T03:13:52.186Z,70.01
2019-05-18T03:16:36.168Z,69.93
2019-05-18T03:19:08.101Z,69.75
2019-05-18T03:21:33.143Z,69.80
2019-05-18T03:24:00.203Z,70.03
2019-05-18T03:26:27.299Z,70.03
2019-05-18T03:28:54.303Z,70.20
2019-05-18T03:31:21.378Z,70.10
2019-05-18T03:33:48.429Z,70.36
2019-05-18T03:36:15.460Z,70.29
2019-05-18T03:38:42.523Z,70.12
2019-05-18T03:41:09.609Z,70.21
2019-05-18T03:43:36.681Z,70.31
2019-05-18T03:46:03.817Z,70.12
2019-05-18T03:48:30.848Z,70.12
2019-05-18T03:50:57.910Z,69.94
2019-05-18T03:53:25.028Z,70.22
2019-05-18T03:55:52.145Z,70.66
2019-05-18T03:58:19.181Z,71.56
2019-05-18T04:00:49.393Z,71.21
2019-05-18T04:03:16.467Z,70.76
2019-05-18T04:05:43.507Z,70.59
2019-05-18T04:08:10.598Z,70.76
2019-05-18T04:10:37.642Z,70.67
2019-05-18T04:13:04.675Z,70.62
2019-05-18T04:15:31.779Z,70.13
2019-05-18T04:17:58.840Z,70.38
2019-05-18T04:20:25.920Z,70.63
2019-05-18T04:22:52.996Z,70.12
2019-05-18T04:25:20.113Z,69.87
2019-05-18T04:27:47.167Z,69.98
2019-05-18T04:30:14.550Z,69.82
2019-05-18T04:32:41.607Z,69.71
2019-05-18T04:35:08.855Z,69.96
2019-05-18T04:37:35.923Z,69.96
2019-05-18T04:40:03.223Z,69.71
2019-05-18T04:42:30.253Z,69.76
2019-05-18T04:44:57.324Z,69.51
2019-05-18T04:47:24.369Z,69.37
2019-05-18T04:50:04.534Z,69.10
2019-05-18T04:52:20.503Z,69.19
2019-05-18T04:54:47.543Z,69.30
2019-05-18T04:57:14.617Z,69.05
2019-05-18T04:59:41.655Z,68.77
2019-05-18T05:02:08.737Z,68.22
2019-05-18T05:04:35.811Z,68.06
2019-05-18T05:07:02.959Z,68.06
2019-05-18T05:09:30.027Z,67.79
2019-05-18T05:11:59.395Z,68.28
2019-05-18T05:14:26.458Z,67.96
2019-05-18T05:16:53.861Z,68.11
2019-05-18T05:19:20.899Z,68.35
2019-05-18T05:21:49.182Z,68.41
2019-05-18T05:24:16.250Z,68.21
2019-05-18T05:26:43.381Z,67.52
2019-05-18T05:29:10.489Z,66.97
2019-05-18T05:31:37.531Z,66.18
2019-05-18T05:34:04.585Z,65.37
2019-05-18T05:36:31.666Z,64.39
2019-05-18T05:38:58.693Z,64.35
2019-05-18T05:41:25.718Z,63.81
2019-05-18T05:43:52.785Z,62.64
2019-05-18T05:46:19.798Z,61.53
2019-05-18T05:48:46.839Z,62.22
2019-05-18T05:51:13.919Z,61.74
2019-05-18T05:53:40.949Z,62.09
2019-05-18T05:56:08.008Z,61.90
2019-05-18T05:58:35.090Z,61.58
2019-05-18T06:01:02.118Z,61.30
2019-05-18T06:03:29.164Z,60.91
2019-05-18T06:05:56.193Z,59.97
2019-05-18T06:08:23.252Z,60.54
2019-05-18T06:10:50.305Z,59.78
2019-05-18T06:13:17.360Z,59.64
2019-05-18T06:15:44.402Z,59.40
2019-05-18T06:18:11.471Z,59.15
2019-05-18T06:20:50.453Z,59.17
2019-05-18T06:23:07.512Z,58.67
2019-05-18T06:25:34.677Z,58.96
2019-05-18T06:28:01.965Z,58.13
2019-05-18T06:30:29.044Z,58.08
2019-05-18T06:32:56.064Z,57.59
2019-05-18T06:35:23.157Z,56.85
2019-05-18T06:37:50.216Z,57.20
2019-05-18T06:40:17.263Z,56.86
2019-05-18T06:42:44.333Z,56.72
2019-05-18T06:45:11.713Z,56.09
2019-05-18T06:47:38.739Z,56.13
2019-05-18T06:50:06.314Z,56.10
2019-05-18T06:52:33.384Z,55.96
2019-05-18T06:55:00.399Z,55.87
2019-05-18T06:57:28.411Z,55.53
2019-05-18T06:59:55.491Z,54.86
2019-05-18T07:02:22.510Z,54.85
2019-05-18T07:04:49.521Z,54.49
2019-05-18T07:07:18.035Z,54.65
2019-05-18T07:09:45.074Z,54.65
2019-05-18T07:12:12.156Z,55.08
2019-05-18T07:14:39.213Z,54.71
2019-05-18T07:17:06.244Z,55.62
2019-05-18T07:19:33.312Z,54.90
2019-05-18T07:22:00.340Z,55.07
2019-05-18T07:24:27.348Z,54.98
2019-05-18T07:26:54.445Z,54.90
2019-05-18T07:29:21.463Z,54.56
2019-05-18T07:31:48.476Z,54.96
2019-05-18T07:34:15.548Z,54.88
2019-05-18T07:36:42.609Z,55.13
2019-05-18T07:39:09.627Z,55.17
2019-05-18T07:41:46.276Z,55.17
2019-05-18T07:44:05.595Z,54.83
2019-05-18T07:46:32.633Z,55.09
2019-05-18T07:48:59.697Z,54.93
2019-05-18T07:51:36.582Z,54.29
2019-05-18T07:53:55.677Z,53.12
2019-05-18T07:56:22.736Z,51.98
2019-05-18T07:58:49.754Z,51.82
2019-05-18T08:01:16.769Z,52.03
2019-05-18T08:03:43.857Z,51.73
2019-05-18T08:06:10.949Z,50.81
2019-05-18T08:08:39.634Z,51.33
2019-05-18T08:11:06.730Z,50.79
2019-05-18T08:13:33.763Z,50.50
2019-05-18T08:16:00.837Z,49.99
2019-05-18T08:18:27.874Z,49.44
2019-05-18T08:20:54.908Z,48.60
2019-05-18T08:23:21.962Z,48.19
2019-05-18T08:25:49.035Z,47.53
2019-05-18T08:28:18.545Z,48.05
2019-05-18T08:30:45.574Z,48.06
2019-05-18T08:33:12.598Z,46.64
2019-05-18T08:35:39.679Z,46.96
2019-05-18T08:38:06.883Z,46.94
2019-05-18T08:40:33.964Z,47.90
2019-05-18T08:43:01.057Z,47.67
2019-05-18T08:45:28.090Z,46.77
2019-05-18T08:47:55.115Z,47.33
2019-05-18T08:50:22.258Z,47.23
2019-05-18T08:52:49.338Z,47.54
2019-05-18T08:55:16.362Z,47.30
2019-05-18T08:57:43.433Z,45.86
2019-05-18T09:00:10.846Z,45.70
2019-05-18T09:02:38.084Z,45.65
2019-05-18T09:05:05.773Z,45.48
2019-05-18T09:07:32.794Z,45.53
2019-05-18T09:09:59.846Z,46.93
2019-05-18T09:12:26.905Z,45.29
2019-05-18T09:14:53.937Z,45.19
2019-05-18T09:17:21.002Z,45.62
2019-05-18T09:19:48.049Z,45.01
2019-05-18T09:22:22.736Z,44.45
2019-05-18T09:24:44.077Z,44.54
2019-05-18T09:27:11.185Z,45.38
2019-05-18T09:29:38.211Z,45.30
2019-05-18T09:32:05.252Z,45.63
2019-05-18T09:34:32.361Z,44.99
2019-05-18T09:36:59.409Z,44.58
2019-05-18T09:39:26.526Z,46.01
2019-05-18T09:41:53.515Z,45.37
2019-05-18T09:44:20.541Z,44.86
2019-05-18T09:46:47.623Z,44.25
2019-05-18T09:49:14.680Z,44.33
2019-05-18T09:51:41.725Z,43.38
2019-05-18T09:54:08.779Z,43.25
2019-05-18T09:56:35.815Z,43.60
2019-05-18T09:59:02.890Z,43.03
2019-05-18T10:01:29.944Z,43.00
2019-05-18T10:03:56.961Z,43.68
2019-05-18T10:06:24.028Z,43.89
2019-05-18T10:08:51.140Z,44.60
2019-05-18T10:11:18.172Z,45.70
2019-05-18T10:13:45.218Z,43.22
2019-05-18T10:16:12.343Z,44.16
2019-05-18T10:18:39.382Z,43.91
2019-05-18T10:21:06.390Z,41.11
2019-05-18T10:23:33.461Z,41.40
2019-05-18T10:26:00.478Z,42.08
2019-05-18T10:28:27.557Z,40.03
2019-05-18T10:30:54.611Z,41.17
2019-05-18T10:33:21.636Z,40.31
2019-05-18T10:35:48.664Z,41.26
2019-05-18T10:38:15.711Z,40.42
2019-05-18T10:40:42.734Z,38.71
2019-05-18T10:43:09.834Z,37.92
2019-05-18T10:45:36.966Z,38.43
2019-05-18T10:48:04.114Z,38.75
2019-05-18T10:50:31.119Z,39.00
2019-05-18T10:52:58.154Z,39.17
2019-05-18T10:55:25.216Z,39.24
2019-05-18T10:57:52.236Z,38.24
2019-05-18T11:00:19.534Z,39.12
2019-05-18T11:02:46.555Z,40.19
2019-05-18T11:05:14.080Z,39.37
2019-05-18T11:07:41.126Z,38.68
2019-05-18T11:10:08.955Z,38.17
2019-05-18T11:12:35.981Z,39.63
2019-05-18T11:15:04.144Z,38.04
2019-05-18T11:17:31.178Z,39.61
2019-05-18T11:19:58.209Z,39.16
2019-05-18T11:22:25.265Z,39.45
2019-05-18T11:24:52.302Z,39.90
2019-05-18T11:27:19.475Z,39.31
2019-05-18T11:29:46.539Z,40.04
2019-05-18T11:32:13.624Z,39.10
2019-05-18T11:34:40.630Z,39.11
2019-05-18T11:37:07.682Z,39.48
2019-05-18T11:39:34.701Z,38.46
2019-05-18T11:42:01.739Z,38.61
2019-05-18T11:44:28.887Z,39.87
2019-05-18T11:46:55.910Z,38.75
2019-05-18T11:49:22.940Z,38.91
2019-05-18T11:51:50.000Z,37.59
2019-05-18T11:54:17.015Z,37.47
2019-05-18T11:56:44.155Z,38.36
2019-05-18T11:59:11.253Z,38.19
2019-05-18T12:01:38.271Z,36.96
2019-05-18T12:04:05.308Z,37.92
2019-05-18T12:06:32.416Z,37.50
2019-05-18T12:08:59.460Z,39.05
2019-05-18T12:11:26.538Z,38.55
2019-05-18T12:13:53.692Z,39.49
2019-05-18T12:16:20.725Z,38.53
2019-05-18T12:18:47.777Z,36.90
2019-05-18T12:21:14.875Z,36.82
2019-05-18T12:23:41.910Z,36.62
2019-05-18T12:26:08.964Z,37.11
2019-05-18T12:28:36.134Z,37.16
2019-05-18T12:31:03.284Z,37.43
2019-05-18T12:33:30.300Z,36.97
2019-05-18T12:35:57.342Z,41.74
2019-05-18T12:38:24.452Z,44.74
2019-05-18T12:40:51.621Z,46.57
2019-05-18T12:43:18.647Z,46.95
2019-05-18T12:45:45.685Z,47.51
2019-05-18T12:48:12.734Z,47.49
2019-05-18T12:50:39.769Z,49.00
2019-05-18T12:53:06.796Z,49.73
2019-05-18T12:55:33.852Z,49.34
2019-05-18T12:58:00.893Z,49.52
2019-05-18T13:00:28.059Z,50.10
2019-05-18T13:02:55.067Z,50.99
2019-05-18T13:05:22.092Z,49.58
2019-05-18T13:07:49.195Z,49.85
2019-05-18T13:10:16.745Z,50.31
2019-05-18T13:12:43.771Z,50.52
2019-05-18T13:15:11.312Z,52.02
2019-05-18T13:17:38.398Z,50.87
2019-05-18T13:20:06.198Z,51.76
2019-05-18T13:22:33.221Z,50.23
2019-05-18T13:25:00.296Z,50.70
2019-05-18T13:27:38.722Z,51.28
2019-05-18T13:29:56.383Z,50.93
2019-05-18T13:32:23.447Z,49.05
2019-05-18T13:34:50.503Z,48.97
2019-05-18T13:37:17.599Z,48.35
2019-05-18T13:39:44.663Z,47.69
2019-05-18T13:42:11.709Z,47.93
2019-05-18T13:44:38.749Z,49.32
2019-05-18T13:47:05.834Z,47.58
2019-05-18T13:49:32.851Z,46.45
2019-05-18T13:51:59.886Z,47.50
2019-05-18T13:54:26.954Z,46.85
2019-05-18T13:56:54.023Z,47.21
2019-05-18T13:59:21.064Z,46.18
2019-05-18T14:01:48.132Z,45.16
2019-05-18T14:04:15.188Z,46.48
2019-05-18T14:06:42.222Z,45.35
2019-05-18T14:09:09.251Z,45.72
2019-05-18T14:11:36.281Z,46.25
2019-05-18T14:14:03.473Z,47.13
2019-05-18T14:16:30.501Z,46.55
2019-05-18T14:18:57.593Z,46.11
2019-05-18T14:21:24.615Z,49.48
2019-05-18T14:23:51.653Z,49.43
2019-05-18T14:26:18.702Z,48.34
2019-05-18T14:28:45.797Z,47.51
2019-05-18T14:31:12.948Z,47.63
2019-05-18T14:33:40.013Z,48.10
2019-05-18T14:36:07.136Z,47.84
2019-05-18T14:38:34.158Z,47.44
2019-05-18T14:41:01.235Z,47.84
2019-05-18T14:43:28.261Z,48.43
2019-05-18T14:45:55.347Z,48.09
2019-05-18T14:48:22.413Z,47.02
2019-05-18T14:50:49.419Z,47.29
2019-05-18T14:53:16.468Z,47.13
2019-05-18T14:55:43.567Z,47.28
2019-05-18T14:58:10.592Z,46.46
2019-05-18T15:00:37.709Z,47.92
2019-05-18T15:03:04.774Z,47.33
2019-05-18T15:05:31.797Z,45.31
2019-05-18T15:07:58.874Z,45.46
2019-05-18T15:10:25.919Z,45.42
2019-05-18T15:12:52.949Z,46.32
2019-05-18T15:15:20.844Z,46.91
2019-05-18T15:17:47.906Z,47.22
2019-05-18T15:20:16.214Z,48.26
2019-05-18T15:22:43.254Z,49.90
2019-05-18T15:25:10.575Z,51.31
2019-05-18T15:27:37.654Z,52.44
2019-05-18T15:30:04.884Z,51.49
2019-05-18T15:32:31.932Z,52.29
2019-05-18T15:34:58.978Z,51.01
2019-05-18T15:37:26.087Z,51.42
2019-05-18T15:39:53.112Z,52.49
2019-05-18T15:42:20.183Z,51.51
2019-05-18T15:44:47.215Z,52.29
2019-05-18T15:47:14.232Z,53.45
2019-05-18T15:49:41.244Z,54.11
2019-05-18T15:52:08.338Z,53.98
2019-05-18T15:54:36.294Z,52.91
2019-05-18T15:57:03.603Z,52.58
2019-05-18T15:59:30.679Z,52.26
2019-05-18T16:01:57.685Z,51.31
2019-05-18T16:04:24.717Z,51.89
2019-05-18T16:06:51.768Z,51.63
2019-05-18T16:09:18.864Z,50.37
2019-05-18T16:11:45.871Z,50.66
2019-05-18T16:14:12.908Z,50.77
2019-05-18T16:16:39.928Z,51.47
2019-05-18T16:19:06.945Z,52.04
2019-05-18T16:21:34.167Z,52.49
2019-05-18T16:24:01.226Z,52.14
2019-05-18T16:26:28.272Z,51.27
2019-05-18T16:28:55.414Z,51.82
2019-05-18T16:31:22.475Z,52.23
2019-05-18T16:33:49.510Z,53.00
2019-05-18T16:36:16.694Z,51.85
2019-05-18T16:38:43.861Z,51.20
2019-05-18T16:41:10.880Z,51.20
2019-05-18T16:43:37.925Z,51.89
2019-05-18T16:46:04.983Z,52.34
2019-05-18T16:48:32.081Z,53.41
2019-05-18T16:50:59.118Z,52.70
2019-05-18T16:53:26.148Z,53.29
2019-05-18T16:55:53.187Z,52.93
2019-05-18T16:58:20.245Z,53.31
2019-05-18T17:00:47.517Z,54.14
2019-05-18T17:03:14.538Z,52.86
2019-05-18T17:05:41.607Z,52.55
2019-05-18T17:08:08.631Z,51.55
2019-05-18T17:10:35.648Z,52.46
2019-05-18T17:13:02.686Z,52.17
2019-05-18T17:15:29.731Z,51.48
2019-05-18T17:17:56.764Z,51.42
2019-05-18T17:20:23.813Z,51.50
2019-05-18T17:22:50.862Z,51.04
2019-05-18T17:25:17.867Z,51.03
2019-05-18T17:27:44.959Z,52.48
2019-05-18T17:30:12.521Z,55.40
2019-05-18T17:32:39.534Z,57.49
2019-05-18T17:35:07.270Z,57.67
2019-05-18T17:37:34.291Z,58.42
2019-05-18T17:40:01.301Z,58.47
2019-05-18T17:42:28.459Z,58.75
2019-05-18T17:44:55.479Z,59.04
2019-05-18T17:47:22.510Z,58.38
2019-05-18T17:49:49.570Z,58.75
2019-05-18T17:52:16.625Z,59.07
2019-05-18T17:54:43.650Z,59.31
2019-05-18T17:57:10.730Z,59.32
2019-05-18T17:59:37.757Z,59.47
2019-05-18T18:02:04.758Z,59.58
2019-05-18T18:04:31.785Z,59.51
2019-05-18T18:06:58.835Z,59.20
2019-05-18T18:09:25.854Z,59.22
2019-05-18T18:11:52.912Z,59.17
2019-05-18T18:14:19.921Z,59.41
2019-05-18T18:16:46.948Z,59.14
2019-05-18T18:19:13.996Z,59.62
2019-05-18T18:21:41.002Z,59.67
2019-05-18T18:24:08.104Z,59.78
2019-05-18T18:26:35.150Z,60.81
2019-05-18T18:29:04.256Z,61.05
2019-05-18T18:31:31.180Z,60.94
2019-05-18T18:33:58.205Z,61.28
2019-05-18T18:36:25.219Z,61.72
2019-05-18T18:38:52.237Z,61.62
2019-05-18T18:41:19.332Z,61.23
2019-05-18T18:43:46.336Z,62.08
2019-05-18T18:46:13.391Z,61.96
2019-05-18T18:48:40.411Z,62.21
2019-05-18T18:51:07.473Z,62.16
2019-05-18T18:53:34.491Z,62.50
2019-05-18T18:56:01.522Z,61.88
2019-05-18T18:58:28.531Z,61.95
2019-05-18T19:00:55.586Z,62.15
2019-05-18T19:03:22.619Z,62.06
2019-05-18T19:05:49.650Z,62.36
2019-05-18T19:08:16.680Z,62.58
2019-05-18T19:10:43.707Z,62.31
2019-05-18T19:13:10.722Z,62.52
2019-05-18T19:15:37.798Z,62.67
2019-05-18T19:18:04.819Z,62.78
2019-05-18T19:20:31.843Z,62.64
2019-05-18T19:22:58.878Z,62.75
2019-05-18T19:25:25.952Z,63.25
2019-05-18T19:27:55.341Z,63.03
2019-05-18T19:30:21.930Z,63.37
2019-05-18T19:32:48.961Z,63.66
2019-05-18T19:35:15.971Z,63.82
2019-05-18T19:37:43.010Z,64.54
2019-05-18T19:40:10.219Z,64.57
2019-05-18T19:42:37.292Z,64.21
2019-05-18T19:45:04.709Z,64.59
2019-05-18T19:47:31.714Z,64.89
2019-05-18T19:49:58.755Z,65.02
2019-05-18T19:52:25.821Z,65.35
2019-05-18T19:54:52.850Z,65.38
2019-05-18T19:57:19.942Z,65.41
2019-05-18T19:59:46.982Z,65.92
2019-05-18T20:02:18.091Z,66.95
2019-05-18T20:04:42.945Z,67.50
2019-05-18T20:07:09.983Z,67.28
2019-05-18T20:09:37.011Z,67.22
2019-05-18T20:12:04.035Z,67.11
2019-05-18T20:14:31.078Z,67.35
2019-05-18T20:16:58.121Z,67.38
2019-05-18T20:19:38.235Z,67.65
2019-05-18T20:21:54.112Z,67.74
2019-05-18T20:24:21.131Z,67.43
2019-05-18T20:26:48.271Z,67.48
2019-05-18T20:29:15.350Z,67.25
2019-05-18T20:31:42.379Z,66.79
2019-05-18T20:34:09.456Z,66.82
2019-05-18T20:36:36.465Z,66.86
2019-05-18T20:39:04.545Z,67.19
2019-05-18T20:41:31.593Z,68.12
2019-05-18T20:43:58.605Z,67.95
2019-05-18T20:46:25.624Z,67.77
2019-05-18T20:48:52.932Z,67.71
2019-05-18T20:51:20.042Z,67.76
2019-05-18T20:53:47.171Z,68.27
2019-05-18T20:56:14.243Z,68.33
2019-05-18T20:58:41.305Z,68.38
2019-05-18T21:01:08.295Z,68.44
2019-05-18T21:03:35.351Z,68.45
2019-05-18T21:06:02.387Z,68.07
2019-05-18T21:08:29.445Z,67.99
2019-05-18T21:10:56.515Z,67.74
2019-05-18T21:13:23.534Z,67.66
2019-05-18T21:15:50.555Z,67.53
2019-05-18T21:18:17.616Z,67.42
2019-05-18T21:20:44.613Z,66.85
2019-05-18T21:23:11.649Z,67.40
2019-05-18T21:25:38.719Z,67.54
2019-05-18T21:28:05.812Z,67.81
2019-05-18T21:30:32.840Z,68.00
2019-05-18T21:32:59.931Z,67.99
2019-05-18T21:35:26.935Z,68.46
2019-05-18T21:37:53.959Z,68.55
2019-05-18T21:40:21.048Z,68.27
2019-05-18T21:42:48.073Z,68.02
2019-05-18T21:45:15.204Z,67.74
2019-05-18T21:47:42.264Z,67.46
2019-05-18T21:50:09.402Z,67.35
2019-05-18T21:52:36.466Z,67.19
2019-05-18T21:55:05.553Z,67.33
2019-05-18T21:57:32.571Z,67.23
2019-05-18T21:59:59.609Z,67.12
2019-05-18T22:02:26.637Z,67.34
2019-05-18T22:04:53.625Z,67.26
2019-05-18T22:07:20.692Z,67.55
2019-05-18T22:09:47.708Z,67.51
2019-05-18T22:12:14.711Z,67.58
2019-05-18T22:14:41.782Z,67.57
2019-05-18T22:17:08.808Z,67.61
2019-05-18T22:19:35.829Z,67.69
2019-05-18T22:22:02.869Z,67.42
2019-05-18T22:24:29.918Z,67.33
2019-05-18T22:26:56.918Z,67.74
2019-05-18T22:29:24.032Z,67.93
2019-05-18T22:31:51.056Z,67.89
2019-05-18T22:34:18.071Z,67.77
2019-05-18T22:36:45.115Z,67.99
2019-05-18T22:39:12.126Z,68.16
2019-05-18T22:41:39.133Z,68.15
2019-05-18T22:44:06.198Z,68.17
2019-05-18T22:46:33.363Z,68.46
2019-05-18T22:49:00.397Z,68.75
2019-05-18T22:51:27.453Z,68.76
2019-05-18T22:53:54.464Z,68.95
2019-05-18T22:56:21.486Z,68.75
2019-05-18T22:58:48.531Z,68.79
2019-05-18T23:01:15.559Z,68.87
2019-05-18T23:03:42.560Z,68.73
2019-05-18T23:06:09.599Z,68.64
2019-05-18T23:08:36.618Z,68.86
2019-05-18T23:11:03.658Z,69.52
2019-05-18T23:13:30.686Z,69.86
2019-05-18T23:15:57.678Z,70.01
2019-05-18T23:18:24.743Z,70.42
2019-05-18T23:20:51.771Z,70.29
2019-05-18T23:23:18.789Z,70.43
2019-05-18T23:25:45.843Z,70.42
2019-05-18T23:28:13.088Z,70.45
2019-05-18T23:30:40.153Z,70.49
2019-05-18T23:33:07.210Z,70.39
2019-05-18T23:35:34.261Z,70.65
2019-05-18T23:38:01.282Z,70.74
2019-05-18T23:40:28.325Z,70.94
2019-05-18T23:42:55.388Z,70.91
2019-05-18T23:45:22.413Z,71.41
2019-05-18T23:47:49.575Z,71.30
2019-05-18T23:50:16.707Z,70.86
2019-05-18T23:52:43.763Z,70.67
2019-05-18T23:55:11.086Z,70.78
2019-05-18T23:57:38.092Z,71.50
